Time;durP1;ratioP1;P1;durP2;ratioP2;P2;SDS_P1;SDS_P2;PMS_P1;PMS_P2;Temp;Humidity;BMP_temperature;BMP_pressure;BME280_temperature;BME280_humidity;BME280_pressure;Samples;Min_cycle;Max_cycle;Signal;HPM_P1;HPM_P2
2022/10/11 00:02:05;;;;;;;4.93;4.43;;;;;;;;;;5050226;28;20704;-76
2022/10/11 00:04:32;;;;;;;7.77;4.33;;;;;;;;;;5050668;28;20284;-77
2022/10/11 00:06:59;;;;;;;4.27;3.87;;;;;;;;;;5050801;28;20202;-76
2022/10/11 00:09:26;;;;;;;4.77;4.17;;;;;;;;;;5050638;28;20201;-76
2022/10/11 00:11:55;;;;;;;7.47;4.23;;;;;;;;;;5050154;28;20237;-76
2022/10/11 00:14:22;;;;;;;5.67;4.00;;;;;;;;;;5050816;28;20355;-76
2022/10/11 00:16:50;;;;;;;4.30;3.90;;;;;;;;;;5050089;28;20711;-77
2022/10/11 00:19:17;;;;;;;4.83;3.80;;;;;;;;;;5050126;28;20210;-77
2022/10/11 00:21:44;;;;;;;5.17;3.73;;;;;;;;;;5050589;28;20660;-77
2022/10/11 00:24:12;;;;;;;7.07;4.27;;;;;;;;;;5050343;28;20252;-76
2022/10/11 00:26:39;;;;;;;3.63;3.30;;;;;;;;;;5050196;28;20217;-77
2022/10/11 00:29:06;;;;;;;4.57;4.00;;;;;;;;;;5050449;28;20230;-77
2022/10/11 00:31:33;;;;;;;4.33;3.93;;;;;;;;;;5049747;28;20256;-76
2022/10/11 00:34:01;;;;;;;9.90;4.43;;;;;;;;;;5050291;28;20201;-76
2022/10/11 00:36:27;;;;;;;4.03;3.53;;;;;;;;;;5050689;28;20213;-77
2022/10/11 00:38:54;;;;;;;4.17;3.77;;;;;;;;;;5049832;28;20677;-77
2022/10/11 00:41:21;;;;;;;4.37;3.97;;;;;;;;;;5050190;28;20229;-76
2022/10/11 00:43:48;;;;;;;6.73;4.20;;;;;;;;;;5052488;28;20202;-76
2022/10/11 00:46:30;;;;;;;5.13;4.10;;;;;;;;;;5053954;28;20627;-77
2022/10/11 00:49:03;;;;;;;3.80;3.50;;;;;;;;;;5054242;28;20275;-76
2022/10/11 00:51:38;;;;;;;5.70;4.17;;;;;;;;;;5054031;28;20202;-76
2022/10/11 00:54:06;;;;;;;5.20;4.20;;;;;;;;;;5053625;28;20240;-76
2022/10/11 00:56:36;;;;;;;4.20;3.80;;;;;;;;;;5053771;28;20209;-76
2022/10/11 00:59:06;;;;;;;5.30;3.77;;;;;;;;;;5053870;28;20577;-76
2022/10/11 01:01:33;;;;;;;4.20;3.73;;;;;;;;;;5053368;28;20643;-77
2022/10/11 01:04:02;;;;;;;4.63;3.87;;;;;;;;;;5053818;28;20696;-76
2022/10/11 01:06:29;;;;;;;4.67;4.07;;;;;;;;;;5054157;28;20201;-76
2022/10/11 01:08:56;;;;;;;3.73;3.43;;;;;;;;;;5053471;28;20197;-76
2022/10/11 01:11:26;;;;;;;4.10;3.80;;;;;;;;;;5052957;28;20198;-77
2022/10/11 01:14:18;;;;;;;5.80;4.37;;;;;;;;;;5053390;28;20649;-76
2022/10/11 01:16:50;;;;;;;3.83;3.53;;;;;;;;;;5044831;28;20208;-77
2022/10/11 01:19:36;;;;;;;7.27;3.80;;;;;;;;;;5053327;28;20257;-76
2022/10/11 01:22:15;;;;;;;5.23;3.83;;;;;;;;;;5053790;28;20673;-76
2022/10/11 01:24:57;;;;;;;7.13;3.67;;;;;;;;;;5053223;28;20201;-77
2022/10/11 01:27:38;;;;;;;4.40;3.60;;;;;;;;;;5053415;28;20623;-76
2022/10/11 01:30:17;;;;;;;5.70;4.00;;;;;;;;;;5053216;28;20267;-76
2022/10/11 01:32:49;;;;;;;5.73;4.07;;;;;;;;;;5052029;28;20209;-77
2022/10/11 01:35:21;;;;;;;6.97;4.53;;;;;;;;;;5050363;28;20196;-76
2022/10/11 01:37:51;;;;;;;7.53;4.67;;;;;;;;;;5052654;28;20201;-77
2022/10/11 01:40:21;;;;;;;4.73;4.30;;;;;;;;;;5052070;28;20206;-77
2022/10/11 01:42:49;;;;;;;4.00;3.70;;;;;;;;;;5052804;28;20239;-77
2022/10/11 01:45:19;;;;;;;5.40;4.17;;;;;;;;;;5050204;28;20194;-77
2022/10/11 01:47:46;;;;;;;5.70;4.23;;;;;;;;;;5052970;28;20266;-77
2022/10/11 01:50:36;;;;;;;4.10;3.70;;;;;;;;;;5052574;28;20214;-77
2022/10/11 01:53:13;;;;;;;6.23;4.53;;;;;;;;;;5052972;28;20657;-77
2022/10/11 01:55:46;;;;;;;4.60;3.90;;;;;;;;;;5051982;28;20261;-77
2022/10/11 01:58:19;;;;;;;4.07;3.77;;;;;;;;;;5052903;28;20213;-77
2022/10/11 02:00:51;;;;;;;5.87;4.03;;;;;;;;;;5052771;28;20205;-77
2022/10/11 02:03:23;;;;;;;5.27;3.97;;;;;;;;;;5052055;28;20237;-77
2022/10/11 02:05:52;;;;;;;7.07;4.03;;;;;;;;;;5052402;28;20198;-77
2022/10/11 02:08:25;;;;;;;5.20;3.67;;;;;;;;;;5052465;28;20758;-77
2022/10/11 02:10:57;;;;;;;4.43;4.03;;;;;;;;;;5052278;28;20720;-77
2022/10/11 02:13:27;;;;;;;4.80;4.10;;;;;;;;;;5052125;28;20209;-78
2022/10/11 02:15:56;;;;;;;3.97;3.57;;;;;;;;;;5052399;28;20206;-77
2022/10/11 02:18:26;;;;;;;4.20;3.90;;;;;;;;;;5052309;28;20213;-77
2022/10/11 02:20:53;;;;;;;7.60;3.80;;;;;;;;;;5052015;28;20198;-76
2022/10/11 02:23:23;;;;;;;6.07;4.47;;;;;;;;;;5052075;28;20849;-77
2022/10/11 02:25:52;;;;;;;4.90;3.83;;;;;;;;;;5052296;28;20643;-77
2022/10/11 02:28:21;;;;;;;3.57;3.27;;;;;;;;;;5051925;28;20217;-77
2022/10/11 02:30:49;;;;;;;6.77;3.70;;;;;;;;;;5051730;28;20201;-77
2022/10/11 02:33:21;;;;;;;5.37;4.27;;;;;;;;;;5052071;28;20206;-77
2022/10/11 02:35:55;;;;;;;4.67;3.90;;;;;;;;;;5052145;28;20255;-77
2022/10/11 02:38:24;;;;;;;5.70;3.93;;;;;;;;;;5052118;28;20205;-77
2022/10/11 02:40:56;;;;;;;5.13;4.63;;;;;;;;;;5051119;28;20206;-77
2022/10/11 02:43:26;;;;;;;3.90;3.33;;;;;;;;;;5051927;28;20286;-77
2022/10/11 02:45:55;;;;;;;4.00;3.70;;;;;;;;;;5049985;28;20240;-77
2022/10/11 02:48:26;;;;;;;3.80;3.50;;;;;;;;;;5050107;28;20198;-77
2022/10/11 02:50:54;;;;;;;5.00;4.27;;;;;;;;;;5051297;28;20213;-77
2022/10/11 02:53:21;;;;;;;4.30;3.43;;;;;;;;;;5051593;28;20261;-77
2022/10/11 02:55:49;;;;;;;5.77;4.40;;;;;;;;;;5051769;28;20201;-77
2022/10/11 02:58:16;;;;;;;4.17;3.80;;;;;;;;;;5051428;28;20203;-77
2022/10/11 03:00:43;;;;;;;4.57;3.97;;;;;;;;;;5051749;28;20255;-77
2022/10/11 03:03:10;;;;;;;4.57;4.17;;;;;;;;;;5050290;28;20226;-77
2022/10/11 03:05:40;;;;;;;4.80;4.30;;;;;;;;;;5038199;28;20209;-77
2022/10/11 03:08:07;;;;;;;4.87;3.73;;;;;;;;;;5051949;28;20194;-76
2022/10/11 03:10:37;;;;;;;4.43;4.03;;;;;;;;;;5051414;28;20288;-76
2022/10/11 03:13:04;;;;;;;4.63;3.93;;;;;;;;;;5051300;28;20264;-77
2022/10/11 03:15:31;;;;;;;5.43;3.80;;;;;;;;;;5051057;28;20256;-77
2022/10/11 03:17:58;;;;;;;4.70;4.03;;;;;;;;;;5051155;28;20212;-77
2022/10/11 03:20:25;;;;;;;4.33;3.93;;;;;;;;;;5050452;28;20213;-77
2022/10/11 03:22:53;;;;;;;4.50;4.10;;;;;;;;;;5051017;28;20226;-77
2022/10/11 03:25:20;;;;;;;7.10;4.27;;;;;;;;;;5050563;28;20201;-77
2022/10/11 03:27:46;;;;;;;4.37;3.97;;;;;;;;;;5051086;28;20206;-76
2022/10/11 03:30:15;;;;;;;4.77;4.37;;;;;;;;;;5050824;28;20205;-77
2022/10/11 03:32:42;;;;;;;5.47;4.10;;;;;;;;;;5050587;28;20288;-77
2022/10/11 03:35:09;;;;;;;4.10;3.80;;;;;;;;;;5048593;28;20205;-76
2022/10/11 03:37:36;;;;;;;4.60;3.60;;;;;;;;;;5050419;28;20198;-76
2022/10/11 03:40:05;;;;;;;6.17;4.53;;;;;;;;;;5050577;28;20206;-77
2022/10/11 03:42:32;;;;;;;6.53;4.20;;;;;;;;;;5050464;28;20230;-77
2022/10/11 03:45:00;;;;;;;6.17;4.90;;;;;;;;;;5048907;28;20209;-80
2022/10/11 03:47:27;;;;;;;4.80;4.30;;;;;;;;;;5050405;28;20672;-80
2022/10/11 03:49:54;;;;;;;7.10;4.17;;;;;;;;;;5050168;28;20206;-78
2022/10/11 03:52:20;;;;;;;4.97;3.73;;;;;;;;;;5042729;28;20233;-79
2022/10/11 03:54:47;;;;;;;3.70;3.40;;;;;;;;;;5050220;28;20668;-79
2022/10/11 03:57:16;;;;;;;5.40;3.57;;;;;;;;;;5050123;28;20198;-79
2022/10/11 03:59:42;;;;;;;5.73;4.10;;;;;;;;;;5049245;28;20289;-79
2022/10/11 04:02:10;;;;;;;4.87;4.37;;;;;;;;;;5050185;28;20232;-79
2022/10/11 04:04:37;;;;;;;24.60;13.13;;;;;;;;;;5050386;28;20198;-79
2022/10/11 04:07:04;;;;;;;12.47;9.43;;;;;;;;;;5050765;28;20206;-79
2022/10/11 04:09:31;;;;;;;12.10;10.93;;;;;;;;;;5050048;28;20267;-79
2022/10/11 04:11:57;;;;;;;11.47;10.37;;;;;;;;;;5037644;28;20202;-79
2022/10/11 04:14:26;;;;;;;7.73;6.97;;;;;;;;;;5029669;28;20253;-79
2022/10/11 04:16:53;;;;;;;8.33;5.70;;;;;;;;;;5035947;28;20209;-79
2022/10/11 04:19:20;;;;;;;5.10;4.63;;;;;;;;;;5049635;28;20213;-78
2022/10/11 04:21:47;;;;;;;8.53;5.40;;;;;;;;;;5048863;28;20206;-78
2022/10/11 04:24:14;;;;;;;5.53;4.93;;;;;;;;;;5048170;28;20699;-78
2022/10/11 04:26:41;;;;;;;7.40;4.30;;;;;;;;;;5050245;28;20212;-78
2022/10/11 04:29:08;;;;;;;4.67;4.23;;;;;;;;;;5049508;28;20198;-78
2022/10/11 04:31:36;;;;;;;6.60;4.47;;;;;;;;;;5050432;28;20252;-78
2022/10/11 04:34:02;;;;;;;6.63;4.43;;;;;;;;;;5050319;28;20216;-78
2022/10/11 04:36:31;;;;;;;4.00;3.70;;;;;;;;;;5050492;28;20217;-78
2022/10/11 04:39:00;;;;;;;5.33;4.00;;;;;;;;;;5050060;28;20257;-78
2022/10/11 04:41:27;;;;;;;6.30;4.20;;;;;;;;;;5049393;28;20212;-78
2022/10/11 04:43:54;;;;;;;6.03;4.10;;;;;;;;;;5049634;28;20669;-78
2022/10/11 04:46:21;;;;;;;4.93;4.03;;;;;;;;;;5049838;28;20226;-78
2022/10/11 04:48:49;;;;;;;7.43;4.50;;;;;;;;;;5049921;28;20201;-76
2022/10/11 04:51:16;;;;;;;9.43;4.00;;;;;;;;;;5048901;28;20194;-75
2022/10/11 04:53:43;;;;;;;4.87;4.20;;;;;;;;;;5049922;28;20233;-76
2022/10/11 04:56:10;;;;;;;4.63;3.70;;;;;;;;;;5049232;28;20212;-76
2022/10/11 04:58:39;;;;;;;4.10;3.70;;;;;;;;;;5048420;28;20586;-76
2022/10/11 05:01:06;;;;;;;6.70;3.37;;;;;;;;;;5050347;28;20259;-75
2022/10/11 05:03:33;;;;;;;3.97;3.50;;;;;;;;;;5049768;28;20222;-75
2022/10/11 05:06:01;;;;;;;4.07;3.73;;;;;;;;;;5049758;28;20201;-75
2022/10/11 05:08:28;;;;;;;4.10;3.80;;;;;;;;;;5049860;28;20202;-76
2022/10/11 05:10:56;;;;;;;4.67;3.63;;;;;;;;;;5049309;28;20588;-75
2022/10/11 05:13:23;;;;;;;4.87;3.53;;;;;;;;;;5049823;28;20601;-75
2022/10/11 05:15:49;;;;;;;7.67;3.83;;;;;;;;;;5049892;28;20210;-75
2022/10/11 05:18:16;;;;;;;5.37;3.73;;;;;;;;;;5049788;28;20206;-75
2022/10/11 05:20:43;;;;;;;8.17;4.37;;;;;;;;;;5049662;28;20212;-76
2022/10/11 05:23:11;;;;;;;5.93;4.77;;;;;;;;;;5049379;28;20774;-76
2022/10/11 05:25:38;;;;;;;3.83;3.37;;;;;;;;;;5049752;28;20263;-76
2022/10/11 05:28:05;;;;;;;5.77;4.87;;;;;;;;;;5049904;28;20201;-76
2022/10/11 05:30:32;;;;;;;4.97;4.47;;;;;;;;;;5051242;28;20206;-75
2022/10/11 05:32:58;;;;;;;6.57;4.57;;;;;;;;;;5053181;28;20209;-75
2022/10/11 05:35:25;;;;;;;5.87;4.47;;;;;;;;;;5053046;28;20202;-75
2022/10/11 05:37:52;;;;;;;5.47;3.77;;;;;;;;;;5052587;28;20229;-76
2022/10/11 05:40:20;;;;;;;5.33;4.23;;;;;;;;;;5052997;28;20206;-75
2022/10/11 05:42:47;;;;;;;7.63;5.10;;;;;;;;;;5053368;28;20616;-76
2022/10/11 05:45:14;;;;;;;6.63;5.07;;;;;;;;;;5052584;28;20210;-76
2022/10/11 05:47:40;;;;;;;9.37;6.73;;;;;;;;;;5053016;28;20217;-75
2022/10/11 05:50:08;;;;;;;9.30;4.73;;;;;;;;;;5052792;28;20221;-75
2022/10/11 05:52:34;;;;;;;5.03;4.53;;;;;;;;;;5052673;28;20708;-75
2022/10/11 05:55:02;;;;;;;7.73;4.90;;;;;;;;;;5052318;28;20206;-76
2022/10/11 05:57:30;;;;;;;9.10;4.50;;;;;;;;;;5052997;28;20662;-76
2022/10/11 05:59:57;;;;;;;4.60;4.00;;;;;;;;;;5052500;28;20209;-76
2022/10/11 06:02:24;;;;;;;5.33;4.23;;;;;;;;;;5052754;28;20205;-76
2022/10/11 06:04:50;;;;;;;12.27;4.93;;;;;;;;;;5052040;28;20701;-76
2022/10/11 06:07:17;;;;;;;14.93;4.93;;;;;;;;;;5038783;28;20206;-75
2022/10/11 06:09:44;;;;;;;7.93;4.70;;;;;;;;;;5052500;28;20206;-75
2022/10/11 06:12:11;;;;;;;7.67;4.37;;;;;;;;;;5052793;28;20210;-76
2022/10/11 06:14:39;;;;;;;5.50;4.07;;;;;;;;;;5052481;28;20194;-76
2022/10/11 06:17:05;;;;;;;6.90;4.63;;;;;;;;;;5052480;28;20201;-75
2022/10/11 06:19:32;;;;;;;5.57;4.80;;;;;;;;;;5052023;28;20203;-76
2022/10/11 06:21:59;;;;;;;8.53;4.57;;;;;;;;;;5052371;28;20198;-75
2022/10/11 06:24:25;;;;;;;7.83;4.50;;;;;;;;;;5051752;28;20300;-76
2022/10/11 06:26:53;;;;;;;8.03;4.33;;;;;;;;;;5052287;28;20684;-76
2022/10/11 06:29:20;;;;;;;9.47;4.20;;;;;;;;;;5051870;28;20202;-75
2022/10/11 06:31:48;;;;;;;9.57;4.83;;;;;;;;;;5051937;28;20861;-75
2022/10/11 06:34:15;;;;;;;8.20;5.83;;;;;;;;;;5051689;28;20217;-76
2022/10/11 06:36:42;;;;;;;8.53;4.20;;;;;;;;;;5052074;28;20201;-75
2022/10/11 06:39:08;;;;;;;6.83;4.07;;;;;;;;;;5051904;28;20676;-76
2022/10/11 06:41:35;;;;;;;7.93;4.60;;;;;;;;;;5051632;28;20202;-76
2022/10/11 06:44:02;;;;;;;4.30;3.90;;;;;;;;;;5051259;28;20227;-75
2022/10/11 06:46:30;;;;;;;5.07;4.27;;;;;;;;;;5051769;28;20204;-75
2022/10/11 06:48:58;;;;;;;4.57;3.73;;;;;;;;;;5051555;28;20211;-76
2022/10/11 06:51:27;;;;;;;5.50;5.00;;;;;;;;;;5051963;28;20279;-76
2022/10/11 06:53:56;;;;;;;6.40;5.07;;;;;;;;;;5051636;28;20233;-76
2022/10/11 06:56:24;;;;;;;6.70;4.97;;;;;;;;;;5051736;28;20197;-76
2022/10/11 06:58:52;;;;;;;5.17;4.57;;;;;;;;;;5051988;28;20628;-76
2022/10/11 07:01:20;;;;;;;10.30;4.47;;;;;;;;;;5050998;28;20194;-76
2022/10/11 07:03:47;;;;;;;5.90;4.93;;;;;;;;;;5051635;28;20233;-76
2022/10/11 07:06:17;;;;;;;6.70;4.67;;;;;;;;;;5051640;28;20228;-76
2022/10/11 07:08:44;;;;;;;5.10;4.60;;;;;;;;;;5051790;28;20213;-76
2022/10/11 07:11:12;;;;;;;7.63;3.80;;;;;;;;;;5051545;28;20207;-76
2022/10/11 07:13:40;;;;;;;4.93;3.43;;;;;;;;;;5051365;28;20285;-76
2022/10/11 07:16:08;;;;;;;7.10;4.23;;;;;;;;;;5051478;28;20210;-76
2022/10/11 07:18:35;;;;;;;5.03;3.30;;;;;;;;;;5051256;28;20206;-76
2022/10/11 07:21:03;;;;;;;4.37;3.50;;;;;;;;;;5050756;28;20217;-76
2022/10/11 07:23:31;;;;;;;11.87;4.20;;;;;;;;;;5051179;28;20782;-76
2022/10/11 07:25:58;;;;;;;6.03;4.57;;;;;;;;;;5050913;28;20230;-76
2022/10/11 07:28:25;;;;;;;6.67;4.43;;;;;;;;;;5051013;28;20206;-76
2022/10/11 07:30:52;;;;;;;4.87;4.10;;;;;;;;;;5051238;28;20209;-76
2022/10/11 07:33:19;;;;;;;4.40;4.00;;;;;;;;;;5050895;28;20205;-76
2022/10/11 07:35:47;;;;;;;5.00;4.50;;;;;;;;;;5050901;28;20581;-76
2022/10/11 07:38:13;;;;;;;6.00;4.43;;;;;;;;;;5051142;28;20209;-76
2022/10/11 07:40:43;;;;;;;4.70;4.10;;;;;;;;;;5050558;28;20638;-76
2022/10/11 07:43:10;;;;;;;9.50;5.00;;;;;;;;;;5051059;28;20221;-76
2022/10/11 07:45:38;;;;;;;4.77;4.30;;;;;;;;;;5050977;28;20203;-76
2022/10/11 07:48:05;;;;;;;6.53;4.90;;;;;;;;;;5050572;28;20211;-76
2022/10/11 07:50:33;;;;;;;6.97;4.93;;;;;;;;;;5050808;28;20204;-76
2022/10/11 07:53:00;;;;;;;5.77;4.73;;;;;;;;;;5050020;28;20228;-76
2022/10/11 07:55:28;;;;;;;5.33;4.57;;;;;;;;;;5050005;28;20199;-76
2022/10/11 07:57:57;;;;;;;9.53;5.37;;;;;;;;;;5050685;28;20237;-76
2022/10/11 08:00:24;;;;;;;5.37;4.87;;;;;;;;;;5050414;28;20209;-76
2022/10/11 08:02:51;;;;;;;8.10;5.63;;;;;;;;;;5050934;28;20211;-76
2022/10/11 08:05:18;;;;;;;13.87;4.47;;;;;;;;;;5049913;28;20598;-76
2022/10/11 08:07:44;;;;;;;5.00;4.50;;;;;;;;;;5050510;28;20745;-76
2022/10/11 08:10:11;;;;;;;5.53;4.97;;;;;;;;;;5050097;28;20901;-76
2022/10/11 08:12:38;;;;;;;5.77;5.17;;;;;;;;;;5050392;28;20267;-76
2022/10/11 08:15:07;;;;;;;7.97;5.00;;;;;;;;;;5050345;28;20282;-76
2022/10/11 08:17:34;;;;;;;7.10;4.83;;;;;;;;;;5050664;28;20208;-76
2022/10/11 08:20:01;;;;;;;4.77;4.37;;;;;;;;;;5050351;28;20633;-76
2022/10/11 08:22:27;;;;;;;5.13;4.63;;;;;;;;;;5050305;28;20262;-76
2022/10/11 08:24:54;;;;;;;6.07;5.47;;;;;;;;;;5050027;28;20245;-76
2022/10/11 08:27:21;;;;;;;5.57;4.07;;;;;;;;;;5050654;28;20553;-76
2022/10/11 08:29:48;;;;;;;5.43;4.93;;;;;;;;;;5050318;28;20251;-76
2022/10/11 08:32:16;;;;;;;4.90;4.40;;;;;;;;;;5050323;28;20202;-76
2022/10/11 08:34:43;;;;;;;6.50;5.07;;;;;;;;;;5050325;28;20221;-76
2022/10/11 08:37:09;;;;;;;8.17;5.10;;;;;;;;;;5049984;28;20206;-76
2022/10/11 08:39:36;;;;;;;5.50;5.00;;;;;;;;;;5049991;28;20338;-76
2022/10/11 08:42:05;;;;;;;6.53;4.73;;;;;;;;;;5050303;28;20666;-76
2022/10/11 08:44:37;;;;;;;5.47;4.97;;;;;;;;;;5049383;28;20229;-76
2022/10/11 08:47:09;;;;;;;5.50;4.83;;;;;;;;;;5050180;28;20209;-76
2022/10/11 08:49:39;;;;;;;6.87;4.77;;;;;;;;;;5049711;28;21025;-76
2022/10/11 08:52:12;;;;;;;7.20;4.93;;;;;;;;;;5049810;28;20271;-76
2022/10/11 08:54:43;;;;;;;5.90;5.30;;;;;;;;;;5050006;28;20201;-76
2022/10/11 08:57:15;;;;;;;6.07;5.17;;;;;;;;;;5050197;28;20595;-76
2022/10/11 08:59:45;;;;;;;7.30;4.67;;;;;;;;;;5050443;28;20201;-76
2022/10/11 09:02:25;;;;;;;5.90;4.70;;;;;;;;;;5036396;28;20213;-76
2022/10/11 09:04:54;;;;;;;5.57;4.60;;;;;;;;;;5052063;28;20237;-76
2022/10/11 09:07:28;;;;;;;5.47;4.87;;;;;;;;;;5053889;28;20198;-76
2022/10/11 09:10:04;;;;;;;4.33;3.93;;;;;;;;;;5053662;28;20202;-76
2022/10/11 09:12:37;;;;;;;4.50;4.10;;;;;;;;;;5040189;28;20618;-76
2022/10/11 09:15:15;;;;;;;5.20;4.70;;;;;;;;;;5053592;28;20209;-76
2022/10/11 09:17:51;;;;;;;4.10;3.47;;;;;;;;;;5053639;28;20212;-76
2022/10/11 09:20:37;;;;;;;5.23;4.33;;;;;;;;;;5053499;28;20205;-76
2022/10/11 09:23:11;;;;;;;5.97;3.80;;;;;;;;;;5053114;28;20202;-76
2022/10/11 09:25:43;;;;;;;3.77;3.27;;;;;;;;;;5053467;28;20233;-76
2022/10/11 09:28:19;;;;;;;3.90;3.53;;;;;;;;;;5053609;28;20202;-76
2022/10/11 09:30:48;;;;;;;4.07;3.13;;;;;;;;;;5053334;28;20244;-76
2022/10/11 09:33:19;;;;;;;5.93;3.37;;;;;;;;;;5053456;28;20209;-76
2022/10/11 09:35:50;;;;;;;4.27;3.43;;;;;;;;;;5053288;28;20680;-76
2022/10/11 09:38:34;;;;;;;6.27;3.60;;;;;;;;;;5053488;28;20636;-77
2022/10/11 09:41:08;;;;;;;5.90;3.13;;;;;;;;;;5052828;28;20202;-76
2022/10/11 09:43:34;;;;;;;4.70;3.80;;;;;;;;;;5053350;28;20564;-76
2022/10/11 09:46:01;;;;;;;3.43;3.13;;;;;;;;;;5053002;28;20221;-76
2022/10/11 09:48:32;;;;;;;7.37;3.47;;;;;;;;;;5052675;28;20199;-76
2022/10/11 09:51:03;;;;;;;3.80;3.50;;;;;;;;;;5052881;28;20205;-76
2022/10/11 09:53:49;;;;;;;3.23;2.83;;;;;;;;;;5053263;28;20662;-76
2022/10/11 09:56:16;;;;;;;7.23;3.70;;;;;;;;;;5052800;28;20355;-76
2022/10/11 09:58:43;;;;;;;4.33;3.93;;;;;;;;;;5052675;28;20201;-76
2022/10/11 10:01:12;;;;;;;3.70;3.40;;;;;;;;;;5053014;28;20202;-77
2022/10/11 10:03:40;;;;;;;3.53;2.83;;;;;;;;;;5052800;28;20211;-76
2022/10/11 10:06:12;;;;;;;4.57;3.67;;;;;;;;;;5052265;28;20213;-77
2022/10/11 10:08:38;;;;;;;4.40;4.00;;;;;;;;;;5053055;28;20595;-76
2022/10/11 10:11:06;;;;;;;7.10;4.60;;;;;;;;;;5052415;28;20565;-76
2022/10/11 10:13:42;;;;;;;4.73;4.17;;;;;;;;;;5052509;28;20614;-76
2022/10/11 10:16:20;;;;;;;6.63;3.70;;;;;;;;;;5051481;28;20569;-76
2022/10/11 10:18:50;;;;;;;5.00;4.20;;;;;;;;;;5052570;28;20734;-77
2022/10/11 10:21:25;;;;;;;4.30;3.77;;;;;;;;;;5052268;28;20206;-76
2022/10/11 10:23:53;;;;;;;4.20;3.47;;;;;;;;;;5051888;28;20640;-76
2022/10/11 10:26:22;;;;;;;4.70;3.67;;;;;;;;;;5052836;28;20206;-76
2022/10/11 10:29:00;;;;;;;5.57;3.70;;;;;;;;;;5052141;28;20289;-76
2022/10/11 10:31:33;;;;;;;6.63;4.57;;;;;;;;;;5052484;28;20217;-76
2022/10/11 10:34:01;;;;;;;5.37;4.20;;;;;;;;;;5051467;28;20221;-76
2022/10/11 10:36:32;;;;;;;4.67;3.53;;;;;;;;;;5052336;28;20201;-77
2022/10/11 10:39:02;;;;;;;7.70;3.67;;;;;;;;;;5052166;28;20197;-76
2022/10/11 10:41:29;;;;;;;7.83;3.57;;;;;;;;;;5052288;28;20190;-77
2022/10/11 10:43:57;;;;;;;4.93;4.23;;;;;;;;;;5052125;28;20225;-76
2022/10/11 10:46:39;;;;;;;4.47;4.07;;;;;;;;;;5051377;28;20661;-76
2022/10/11 10:49:12;;;;;;;8.40;4.67;;;;;;;;;;5051689;28;20209;-76
2022/10/11 10:51:48;;;;;;;5.37;4.50;;;;;;;;;;5051996;28;20260;-77
2022/10/11 10:54:20;;;;;;;8.13;4.10;;;;;;;;;;5051835;28;20701;-76
2022/10/11 10:56:52;;;;;;;4.27;3.67;;;;;;;;;;5051732;28;20201;-76
2022/10/11 10:59:30;;;;;;;4.43;3.90;;;;;;;;;;5051825;28;20680;-76
2022/10/11 11:02:01;;;;;;;3.20;3.00;;;;;;;;;;5051610;28;20197;-76
2022/10/11 11:04:30;;;;;;;4.87;3.83;;;;;;;;;;5051685;28;20228;-76
2022/10/11 11:07:03;;;;;;;5.23;3.83;;;;;;;;;;5051520;28;20198;-76
2022/10/11 11:09:36;;;;;;;4.87;3.37;;;;;;;;;;5051701;28;20213;-76
2022/10/11 11:12:12;;;;;;;4.47;3.57;;;;;;;;;;5051630;28;20642;-76
2022/10/11 11:14:46;;;;;;;8.00;5.90;;;;;;;;;;5051754;28;20198;-77
2022/10/11 11:17:22;;;;;;;8.90;3.73;;;;;;;;;;5051508;28;20198;-77
2022/10/11 11:19:57;;;;;;;5.63;3.27;;;;;;;;;;5051115;28;20234;-77
2022/10/11 11:22:34;;;;;;;9.00;4.20;;;;;;;;;;5051501;28;20227;-76
2022/10/11 11:25:07;;;;;;;6.33;3.80;;;;;;;;;;5051353;28;20674;-77
2022/10/11 11:27:48;;;;;;;10.40;3.90;;;;;;;;;;5051309;28;20206;-77
2022/10/11 11:30:19;;;;;;;13.47;4.13;;;;;;;;;;5050172;28;20209;-77
2022/10/11 11:32:52;;;;;;;3.83;3.50;;;;;;;;;;5051148;28;20692;-76
2022/10/11 11:35:26;;;;;;;4.90;3.80;;;;;;;;;;5051166;28;20202;-77
2022/10/11 11:37:58;;;;;;;4.20;3.40;;;;;;;;;;5051043;28;20711;-77
2022/10/11 11:40:33;;;;;;;4.27;3.30;;;;;;;;;;5050707;28;20332;-77
2022/10/11 11:43:03;;;;;;;5.63;3.33;;;;;;;;;;5051160;28;20201;-76
2022/10/11 11:45:36;;;;;;;3.93;3.43;;;;;;;;;;5050890;28;20656;-76
2022/10/11 11:48:05;;;;;;;5.80;3.97;;;;;;;;;;5050813;28;20714;-77
2022/10/11 11:50:38;;;;;;;3.60;3.30;;;;;;;;;;5050375;28;20205;-76
2022/10/11 11:53:12;;;;;;;3.87;3.47;;;;;;;;;;5050620;28;20616;-77
2022/10/11 11:55:43;;;;;;;3.60;3.33;;;;;;;;;;5050855;28;20276;-76
2022/10/11 11:58:23;;;;;;;5.67;3.47;;;;;;;;;;5050627;28;20202;-76
2022/10/11 12:00:55;;;;;;;3.47;3.17;;;;;;;;;;5050519;28;20665;-76
2022/10/11 12:03:24;;;;;;;4.03;3.40;;;;;;;;;;5050582;28;20210;-76
2022/10/11 12:06:17;;;;;;;3.67;3.30;;;;;;;;;;5050426;28;20297;-77
2022/10/11 12:08:47;;;;;;;3.70;3.40;;;;;;;;;;5050685;28;20198;-77
2022/10/11 12:11:20;;;;;;;5.57;3.07;;;;;;;;;;5050506;28;20202;-77
2022/10/11 12:13:48;;;;;;;7.57;3.97;;;;;;;;;;5050104;28;20206;-77
2022/10/11 12:16:16;;;;;;;3.77;3.30;;;;;;;;;;5050303;28;20208;-77
2022/10/11 12:18:54;;;;;;;3.80;3.37;;;;;;;;;;5050827;28;20205;-77
2022/10/11 12:21:26;;;;;;;9.03;4.83;;;;;;;;;;5050375;28;20208;-77
2022/10/11 12:23:54;;;;;;;5.03;3.73;;;;;;;;;;5050669;28;20206;-77
2022/10/11 12:26:41;;;;;;;4.80;3.63;;;;;;;;;;5050087;28;20232;-77
2022/10/11 12:29:42;;;;;;;4.53;3.57;;;;;;;;;;5050399;28;20205;-77
2022/10/11 12:32:48;;;;;;;8.83;4.47;;;;;;;;;;5050199;28;20197;-77
2022/10/11 12:35:41;;;;;;;3.57;3.27;;;;;;;;;;5049755;28;20288;-77
2022/10/11 12:38:16;;;;;;;6.50;4.17;;;;;;;;;;5050241;28;20201;-77
2022/10/11 12:40:47;;;;;;;5.30;4.77;;;;;;;;;;5054717;28;20240;-76
2022/10/11 12:43:26;;;;;;;6.37;5.53;;;;;;;;;;5054316;28;20208;-77
2022/10/11 12:45:53;;;;;;;10.60;4.30;;;;;;;;;;5054461;28;20225;-77
2022/10/11 12:48:38;;;;;;;4.30;4.00;;;;;;;;;;5054052;28;20212;-77
2022/10/11 12:51:19;;;;;;;7.73;3.40;;;;;;;;;;5054148;28;20305;-77
2022/10/11 12:53:59;;;;;;;4.77;3.47;;;;;;;;;;5040964;28;20287;-77
2022/10/11 12:56:38;;;;;;;4.07;3.77;;;;;;;;;;5053938;28;20588;-76
2022/10/11 12:59:05;;;;;;;6.10;3.40;;;;;;;;;;5053935;28;20198;-77
2022/10/11 13:01:35;;;;;;;7.90;4.73;;;;;;;;;;5053542;28;20206;-77
2022/10/11 13:04:05;;;;;;;6.90;3.90;;;;;;;;;;5053694;28;20575;-77
2022/10/11 13:06:35;;;;;;;4.67;3.80;;;;;;;;;;5054541;28;20294;-76
2022/10/11 13:09:05;;;;;;;6.03;3.63;;;;;;;;;;5040215;28;20206;-77
2022/10/11 13:11:35;;;;;;;4.37;3.53;;;;;;;;;;5053851;28;20229;-77
2022/10/11 13:14:08;;;;;;;5.70;3.47;;;;;;;;;;5053543;28;20689;-76
2022/10/11 13:16:58;;;;;;;4.80;3.37;;;;;;;;;;5053458;28;20210;-77
2022/10/11 13:19:27;;;;;;;4.33;3.93;;;;;;;;;;5041460;28;21855;-76
2022/10/11 13:21:56;;;;;;;9.47;4.77;;;;;;;;;;5053489;28;20206;-76
2022/10/11 13:24:23;;;;;;;4.53;3.80;;;;;;;;;;5053646;28;20259;-77
2022/10/11 13:26:55;;;;;;;3.93;3.63;;;;;;;;;;5053158;28;20704;-76
2022/10/11 13:29:29;;;;;;;5.70;3.60;;;;;;;;;;5053571;28;20231;-76
2022/10/11 13:31:57;;;;;;;5.73;4.10;;;;;;;;;;5053337;28;20208;-76
2022/10/11 13:34:24;;;;;;;8.23;4.00;;;;;;;;;;5053321;28;20213;-76
2022/10/11 13:36:55;;;;;;;3.60;3.30;;;;;;;;;;5053411;28;20734;-77
2022/10/11 13:39:27;;;;;;;6.00;3.83;;;;;;;;;;5053009;28;20209;-77
2022/10/11 13:41:56;;;;;;;3.87;3.47;;;;;;;;;;5053350;28;20205;-77
2022/10/11 13:44:23;;;;;;;4.40;3.90;;;;;;;;;;5053232;28;20202;-76
2022/10/11 13:46:50;;;;;;;5.50;4.03;;;;;;;;;;5053228;28;20225;-77
2022/10/11 13:49:36;;;;;;;5.30;4.77;;;;;;;;;;5053283;28;20206;-76
2022/10/11 13:52:06;;;;;;;7.70;3.80;;;;;;;;;;5037977;28;20740;-76
2022/10/11 13:55:10;;;;;;;4.60;3.47;;;;;;;;;;5052827;28;20284;-76
2022/10/11 13:57:41;;;;;;;4.73;3.60;;;;;;;;;;5021904;28;20285;-77
2022/10/11 14:00:10;;;;;;;6.70;3.50;;;;;;;;;;5049538;28;20202;-76
2022/10/11 14:02:38;;;;;;;3.97;3.37;;;;;;;;;;5052791;28;20206;-77
2022/10/11 14:05:05;;;;;;;6.37;4.47;;;;;;;;;;5052509;28;20201;-77
2022/10/11 14:07:36;;;;;;;4.30;3.77;;;;;;;;;;5053046;28;20202;-76
2022/10/11 14:10:03;;;;;;;6.33;4.23;;;;;;;;;;5052784;28;20214;-77
2022/10/11 14:12:36;;;;;;;6.03;3.50;;;;;;;;;;5052572;28;20691;-77
2022/10/11 14:15:06;;;;;;;4.20;3.80;;;;;;;;;;5052370;28;20212;-76
2022/10/11 14:17:39;;;;;;;6.40;3.70;;;;;;;;;;5039029;28;20200;-77
2022/10/11 14:20:15;;;;;;;7.40;4.10;;;;;;;;;;5052450;28;20236;-77
2022/10/11 14:22:42;;;;;;;3.63;3.33;;;;;;;;;;5052591;28;20202;-77
2022/10/11 14:25:09;;;;;;;4.27;3.93;;;;;;;;;;5052172;28;20220;-77
2022/10/11 14:27:36;;;;;;;4.47;4.07;;;;;;;;;;5052440;28;20267;-77
2022/10/11 14:30:08;;;;;;;10.33;4.67;;;;;;;;;;5052610;28;20217;-77
2022/10/11 14:32:36;;;;;;;10.30;4.53;;;;;;;;;;5052103;28;20281;-76
2022/10/11 14:35:03;;;;;;;8.13;3.80;;;;;;;;;;5052721;28;20276;-76
2022/10/11 14:37:30;;;;;;;9.20;3.90;;;;;;;;;;5052475;28;20206;-77
2022/10/11 14:39:56;;;;;;;4.73;4.23;;;;;;;;;;5051785;28;20267;-76
2022/10/11 14:42:23;;;;;;;5.57;3.63;;;;;;;;;;5051899;28;20217;-76
2022/10/11 14:44:50;;;;;;;8.53;3.47;;;;;;;;;;5050423;28;20214;-76
2022/10/11 14:47:18;;;;;;;5.00;3.50;;;;;;;;;;5051440;28;20611;-76
2022/10/11 14:49:45;;;;;;;4.97;4.27;;;;;;;;;;5051641;28;20205;-76
2022/10/11 14:52:13;;;;;;;6.27;4.80;;;;;;;;;;5051278;28;20233;-76
2022/10/11 14:54:41;;;;;;;5.20;4.03;;;;;;;;;;5051584;28;20209;-77
2022/10/11 14:57:08;;;;;;;6.30;4.07;;;;;;;;;;5052027;28;20206;-76
2022/10/11 14:59:37;;;;;;;3.60;3.30;;;;;;;;;;5051190;28;20206;-76
2022/10/11 15:02:05;;;;;;;4.00;3.70;;;;;;;;;;5051620;28;20204;-76